Time;durP1;ratioP1;P1;durP2;ratioP2;P2;SDS_P1;SDS_P2;PMS_P1;PMS_P2;Temp;Humidity;BMP_temperature;BMP_pressure;BME280_temperature;BME280_humidity;BME280_pressure;Samples;Min_cycle;Max_cycle;Signal;HPM_P1;HPM_P2
2022/05/19 00:02:19;;;;;;;;;;;21.30;99.90;;;;;;6351166;22;20325;-82
2022/05/19 00:04:45;;;;;;;;;;;21.30;99.90;;;;;;6353138;22;19971;-83
2022/05/19 00:07:11;;;;;;;;;;;21.30;99.90;;;;;;6361466;22;19906;-82
2022/05/19 00:09:37;;;;;;;;;;;21.20;99.90;;;;;;6386263;22;20305;-82
2022/05/19 00:12:07;;;;;;;;;;;21.20;99.90;;;;;;6377798;22;19906;-83
2022/05/19 00:14:33;;;;;;;;;;;21.10;99.90;;;;;;6377534;22;19909;-83
2022/05/19 00:16:58;;;;;;;;;;;21.10;99.90;;;;;;6377371;22;19902;-83
2022/05/19 00:19:24;;;;;;;;;;;21.00;99.90;;;;;;6377742;22;19906;-83
2022/05/19 00:21:50;;;;;;;;;;;21.00;99.90;;;;;;6349152;22;19954;-83
2022/05/19 00:24:16;;;;;;;;;;;21.00;99.90;;;;;;6350066;22;19906;-83
2022/05/19 00:26:41;;;;;;;;;;;21.00;99.90;;;;;;6349559;22;19903;-83
2022/05/19 00:29:08;;;;;;;;;;;21.00;99.90;;;;;;6378236;22;19898;-82
2022/05/19 00:31:36;;;;;;;;;;;21.00;99.90;;;;;;6377557;22;19898;-83
2022/05/19 00:34:02;;;;;;;;;;;21.00;99.90;;;;;;6377705;22;19902;-83
2022/05/19 00:36:28;;;;;;;;;;;21.00;99.90;;;;;;6351022;22;19910;-82
2022/05/19 00:38:54;;;;;;;;;;;21.00;99.90;;;;;;6378014;22;19938;-83
2022/05/19 00:41:20;;;;;;;;;;;21.00;99.90;;;;;;6377741;22;19909;-82
2022/05/19 00:43:54;;;;;;;;;;;20.90;99.90;;;;;;6377688;22;20388;-82
2022/05/19 00:46:21;;;;;;;;;;;20.80;99.90;;;;;;6377237;22;19938;-83
2022/05/19 00:48:51;;;;;;;;;;;20.70;1.00;;;;;;6377697;22;19903;-82
2022/05/19 00:51:18;;;;;;;;;;;20.60;1.00;;;;;;6377213;22;19902;-83
2022/05/19 00:53:54;;;;;;;;;;;20.60;1.00;;;;;;6377717;22;20300;-83
2022/05/19 00:56:27;;;;;;;;;;;20.50;1.00;;;;;;6376743;22;19914;-83
2022/05/19 00:58:56;;;;;;;;;;;20.50;1.00;;;;;;6349033;22;19902;-82
2022/05/19 01:01:21;;;;;;;;;;;20.60;1.00;;;;;;6376350;22;19909;-83
2022/05/19 01:03:49;;;;;;;;;;;20.60;1.00;;;;;;6377038;22;19942;-83
2022/05/19 01:06:16;;;;;;;;;;;20.60;1.00;;;;;;6348816;22;19913;-83
2022/05/19 01:08:44;;;;;;;;;;;20.60;1.00;;;;;;6377471;22;19903;-83
2022/05/19 01:11:10;;;;;;;;;;;20.60;1.00;;;;;;6377610;22;19902;-83
2022/05/19 01:13:36;;;;;;;;;;;20.50;1.00;;;;;;6349702;22;19970;-82
2022/05/19 01:16:03;;;;;;;;;;;20.50;1.00;;;;;;6348738;22;20270;-82
2022/05/19 01:18:29;;;;;;;;;;;20.40;99.90;;;;;;6350017;22;19903;-83
2022/05/19 01:20:55;;;;;;;;;;;20.40;99.90;;;;;;6349442;22;19902;-82
2022/05/19 01:23:24;;;;;;;;;;;20.30;1.00;;;;;;6376363;22;19963;-82
2022/05/19 01:25:49;;;;;;;;;;;20.30;1.00;;;;;;6349893;22;19914;-82
2022/05/19 01:28:15;;;;;;;;;;;20.30;1.00;;;;;;6349529;22;20236;-82
2022/05/19 01:30:41;;;;;;;;;;;20.40;1.00;;;;;;6349718;22;19950;-82
2022/05/19 01:33:07;;;;;;;;;;;20.40;1.00;;;;;;6348985;22;19913;-83
2022/05/19 01:35:33;;;;;;;;;;;20.40;99.90;;;;;;6349463;22;19906;-83
2022/05/19 01:38:03;;;;;;;;;;;20.40;99.90;;;;;;6376810;22;19929;-82
2022/05/19 01:40:40;;;;;;;;;;;20.40;99.90;;;;;;6348360;22;19906;-83
2022/05/19 01:43:11;;;;;;;;;;;20.40;99.90;;;;;;6378372;22;19957;-82
2022/05/19 01:45:37;;;;;;;;;;;20.40;99.90;;;;;;6378420;22;19906;-83
2022/05/19 01:48:13;;;;;;;;;;;20.40;99.90;;;;;;6376424;22;19914;-83
2022/05/19 01:50:44;;;;;;;;;;;20.30;99.90;;;;;;6377528;22;20328;-82
2022/05/19 01:53:13;;;;;;;;;;;20.20;99.90;;;;;;6350070;22;19903;-82
2022/05/19 01:56:04;;;;;;;;;;;20.20;99.90;;;;;;6377929;22;19959;-83
2022/05/19 01:58:34;;;;;;;;;;;20.20;99.90;;;;;;6289826;22;19902;-83
2022/05/19 02:01:01;;;;;;;;;;;20.10;99.90;;;;;;6377593;22;19922;-83
2022/05/19 02:03:33;;;;;;;;;;;20.00;99.90;;;;;;6378400;22;19945;-82
2022/05/19 02:06:02;;;;;;;;;;;19.90;99.90;;;;;;6350785;22;19906;-83
2022/05/19 02:08:39;;;;;;;;;;;19.90;99.90;;;;;;6349636;22;19988;-83
2022/05/19 02:11:09;;;;;;;;;;;19.80;99.90;;;;;;6378987;22;20290;-83
2022/05/19 02:13:34;;;;;;;;;;;19.80;99.90;;;;;;6350690;22;19929;-83
2022/05/19 02:16:03;;;;;;;;;;;19.80;99.90;;;;;;6377948;22;19902;-83
2022/05/19 02:18:28;;;;;;;;;;;19.80;99.90;;;;;;6351851;22;19902;-82
2022/05/19 02:20:55;;;;;;;;;;;19.80;99.90;;;;;;6379181;22;19902;-84
2022/05/19 02:23:21;;;;;;;;;;;19.80;99.90;;;;;;6378718;22;19910;-83
2022/05/19 02:25:47;;;;;;;;;;;19.80;99.90;;;;;;6351814;22;19918;-82
2022/05/19 02:28:17;;;;;;;;;;;19.80;99.90;;;;;;6379183;22;19937;-83
2022/05/19 02:30:43;;;;;;;;;;;19.80;99.90;;;;;;6379485;22;19902;-82
2022/05/19 02:33:11;;;;;;;;;;;19.80;99.90;;;;;;6350985;22;19953;-83
2022/05/19 02:35:36;;;;;;;;;;;19.80;99.90;;;;;;6350927;22;19930;-82
2022/05/19 02:38:02;;;;;;;;;;;19.80;99.90;;;;;;6378330;22;19929;-83
2022/05/19 02:40:30;;;;;;;;;;;19.80;99.90;;;;;;6349894;22;19924;-82
2022/05/19 02:42:55;;;;;;;;;;;19.80;99.90;;;;;;6350781;22;19913;-82
2022/05/19 02:45:21;;;;;;;;;;;19.90;99.90;;;;;;6379445;22;19906;-83
2022/05/19 02:47:47;;;;;;;;;;;19.90;99.90;;;;;;6377967;22;19902;-83
2022/05/19 02:50:13;;;;;;;;;;;19.90;99.90;;;;;;6352102;22;19988;-83
2022/05/19 02:52:38;;;;;;;;;;;19.90;99.90;;;;;;6351195;22;19952;-82
2022/05/19 02:55:04;;;;;;;;;;;19.90;99.90;;;;;;6379099;22;19906;-83
2022/05/19 02:57:30;;;;;;;;;;;19.90;99.90;;;;;;6377055;22;19902;-82
2022/05/19 02:59:55;;;;;;;;;;;19.90;99.90;;;;;;6378419;22;19902;-82
2022/05/19 03:02:21;;;;;;;;;;;19.80;99.90;;;;;;6379334;22;19902;-82
2022/05/19 03:04:48;;;;;;;;;;;19.70;99.90;;;;;;6353059;22;19902;-82
2022/05/19 03:07:14;;;;;;;;;;;19.70;99.90;;;;;;6355879;22;19917;-82
2022/05/19 03:09:45;;;;;;;;;;;19.60;99.90;;;;;;6388779;22;19949;-83
2022/05/19 03:12:11;;;;;;;;;;;19.60;99.90;;;;;;6378819;22;19925;-83
2022/05/19 03:14:36;;;;;;;;;;;19.50;99.90;;;;;;6379411;22;20208;-82
2022/05/19 03:17:04;;;;;;;;;;;19.50;99.90;;;;;;6379247;22;19979;-83
2022/05/19 03:19:29;;;;;;;;;;;19.40;99.90;;;;;;6380017;22;20409;-83
2022/05/19 03:21:55;;;;;;;;;;;19.30;99.90;;;;;;6380074;22;19921;-83
2022/05/19 03:24:20;;;;;;;;;;;19.20;99.90;;;;;;6351011;22;19902;-82
2022/05/19 03:26:46;;;;;;;;;;;19.20;99.90;;;;;;6380137;22;19910;-83
2022/05/19 03:29:11;;;;;;;;;;;19.20;99.90;;;;;;6380925;22;20020;-82
2022/05/19 03:31:38;;;;;;;;;;;19.20;99.90;;;;;;6350183;22;20239;-83
2022/05/19 03:34:04;;;;;;;;;;;19.20;99.90;;;;;;6354927;22;19917;-83
2022/05/19 03:36:29;;;;;;;;;;;19.20;99.90;;;;;;6380840;22;19902;-83
2022/05/19 03:38:55;;;;;;;;;;;19.30;99.90;;;;;;6381245;22;19938;-83
2022/05/19 03:41:21;;;;;;;;;;;19.30;99.90;;;;;;6380316;22;19924;-83
2022/05/19 03:43:47;;;;;;;;;;;19.30;99.90;;;;;;6352304;22;19942;-82
2022/05/19 03:46:13;;;;;;;;;;;19.30;99.90;;;;;;6380398;22;19914;-83
2022/05/19 03:48:41;;;;;;;;;;;19.40;99.90;;;;;;6351994;22;19937;-83
2022/05/19 03:51:16;;;;;;;;;;;19.30;99.90;;;;;;6354120;22;19976;-82
2022/05/19 03:53:42;;;;;;;;;;;19.40;99.90;;;;;;6352449;22;19951;-82
2022/05/19 03:56:07;;;;;;;;;;;19.30;99.90;;;;;;6379408;22;19950;-83
2022/05/19 03:58:33;;;;;;;;;;;19.30;99.90;;;;;;6352164;22;19902;-82
2022/05/19 04:00:58;;;;;;;;;;;19.20;99.90;;;;;;6352549;22;19989;-83
2022/05/19 04:03:24;;;;;;;;;;;19.30;99.90;;;;;;6380110;22;19903;-83
2022/05/19 04:05:49;;;;;;;;;;;19.30;99.90;;;;;;6380358;22;19906;-83
2022/05/19 04:08:15;;;;;;;;;;;19.30;99.90;;;;;;6352476;22;19902;-83
2022/05/19 04:10:42;;;;;;;;;;;19.40;99.90;;;;;;6367653;22;19919;-84
2022/05/19 04:13:08;;;;;;;;;;;19.40;99.90;;;;;;6340632;22;20400;-84
2022/05/19 04:15:34;;;;;;;;;;;19.50;99.90;;;;;;6338560;22;20249;-86
2022/05/19 04:17:59;;;;;;;;;;;19.50;99.90;;;;;;6340846;22;19951;-83
2022/05/19 04:20:29;;;;;;;;;;;19.60;99.90;;;;;;6346386;22;19941;-85
2022/05/19 04:22:56;;;;;;;;;;;19.70;99.90;;;;;;6339184;22;20347;-83
2022/05/19 04:25:21;;;;;;;;;;;19.80;99.90;;;;;;6339755;22;19914;-85
2022/05/19 04:27:46;;;;;;;;;;;19.90;99.90;;;;;;6339022;22;19903;-84
2022/05/19 04:30:15;;;;;;;;;;;19.90;99.90;;;;;;6339780;22;19902;-84
2022/05/19 04:32:41;;;;;;;;;;;20.00;99.90;;;;;;6339164;22;19906;-84
2022/05/19 04:35:07;;;;;;;;;;;20.00;99.90;;;;;;6339928;22;19902;-85
2022/05/19 04:37:32;;;;;;;;;;;20.10;99.90;;;;;;6339305;22;19945;-84
2022/05/19 04:40:02;;;;;;;;;;;20.20;99.90;;;;;;6338517;22;20324;-84
2022/05/19 04:42:28;;;;;;;;;;;20.20;99.90;;;;;;6339589;22;19905;-84
2022/05/19 04:44:54;;;;;;;;;;;20.30;99.90;;;;;;6343082;22;20226;-84
2022/05/19 04:47:20;;;;;;;;;;;20.30;99.90;;;;;;6339856;22;19906;-84
2022/05/19 04:49:45;;;;;;;;;;;20.40;99.90;;;;;;6341067;22;19912;-84
2022/05/19 04:52:11;;;;;;;;;;;20.60;99.90;;;;;;6342153;22;19903;-85
2022/05/19 04:54:36;;;;;;;;;;;20.70;99.90;;;;;;6346627;22;19906;-83
2022/05/19 04:57:02;;;;;;;;;;;20.70;99.90;;;;;;6339324;22;19906;-84
2022/05/19 04:59:27;;;;;;;;;;;20.80;99.90;;;;;;6337590;22;19903;-85
2022/05/19 05:01:53;;;;;;;;;;;20.80;99.90;;;;;;6341893;22;19968;-84
2022/05/19 05:04:19;;;;;;;;;;;20.80;99.90;;;;;;6338592;22;19903;-84
2022/05/19 05:06:45;;;;;;;;;;;20.90;99.90;;;;;;6337283;22;19918;-83
2022/05/19 05:09:10;;;;;;;;;;;20.90;99.90;;;;;;6338047;22;20236;-83
2022/05/19 05:11:39;;;;;;;;;;;21.00;99.90;;;;;;6339818;22;20229;-85
2022/05/19 05:14:04;;;;;;;;;;;21.10;99.90;;;;;;6339046;22;19903;-84
2022/05/19 05:16:30;;;;;;;;;;;21.20;99.90;;;;;;6337434;22;19953;-84
2022/05/19 05:18:55;;;;;;;;;;;21.20;99.90;;;;;;6337711;22;19903;-84
2022/05/19 05:21:20;;;;;;;;;;;21.30;99.90;;;;;;6338030;22;19913;-85
2022/05/19 05:23:46;;;;;;;;;;;21.40;99.90;;;;;;6338462;22;19914;-84
2022/05/19 05:26:14;;;;;;;;;;;21.40;99.90;;;;;;6338394;22;19907;-84
2022/05/19 05:28:40;;;;;;;;;;;21.50;99.90;;;;;;6338630;22;19906;-85
2022/05/19 05:31:05;;;;;;;;;;;21.70;99.90;;;;;;6338658;22;19928;-84
2022/05/19 05:33:31;;;;;;;;;;;21.80;99.90;;;;;;6338367;22;19902;-83
2022/05/19 05:35:56;;;;;;;;;;;21.80;99.90;;;;;;6338438;22;19910;-85
2022/05/19 05:38:22;;;;;;;;;;;21.90;99.90;;;;;;6340508;22;19903;-85
2022/05/19 05:40:50;;;;;;;;;;;22.10;99.90;;;;;;6340951;22;20114;-85
2022/05/19 05:43:17;;;;;;;;;;;22.30;99.90;;;;;;6340425;22;19903;-85
2022/05/19 05:45:43;;;;;;;;;;;22.80;99.90;;;;;;6339933;22;19906;-85
2022/05/19 05:48:09;;;;;;;;;;;23.30;99.90;;;;;;6340871;22;19909;-86
2022/05/19 05:50:35;;;;;;;;;;;23.90;99.90;;;;;;6339952;22;19985;-86
2022/05/19 05:53:01;;;;;;;;;;;25.10;99.90;;;;;;6339886;22;19903;-86
2022/05/19 05:55:26;;;;;;;;;;;26.60;99.90;;;;;;6340498;22;19929;-85
2022/05/19 05:57:52;;;;;;;;;;;27.90;99.90;;;;;;6341242;22;19903;-85
2022/05/19 06:00:18;;;;;;;;;;;29.50;99.90;;;;;;6343453;22;19903;-84
2022/05/19 06:02:44;;;;;;;;;;;31.20;99.90;;;;;;6356283;22;19902;-84
2022/05/19 06:05:10;;;;;;;;;;;32.20;99.90;;;;;;6357746;22;19914;-85
2022/05/19 06:07:35;;;;;;;;;;;33.10;99.90;;;;;;6352266;22;19903;-84
2022/05/19 06:10:01;;;;;;;;;;;33.50;99.90;;;;;;6350721;22;19952;-84
2022/05/19 06:12:27;;;;;;;;;;;33.50;99.90;;;;;;6351859;22;19918;-85
2022/05/19 06:14:56;;;;;;;;;;;34.40;99.90;;;;;;6350397;22;19903;-85
2022/05/19 06:17:22;;;;;;;;;;;34.80;99.90;;;;;;6349684;22;19903;-85
2022/05/19 06:19:49;;;;;;;;;;;35.50;99.90;;;;;;6349355;22;20317;-86
2022/05/19 06:22:14;;;;;;;;;;;35.70;99.90;;;;;;6349664;22;19902;-86
2022/05/19 06:24:40;;;;;;;;;;;35.50;99.90;;;;;;6353358;22;20397;-84
2022/05/19 06:27:05;;;;;;;;;;;34.60;99.90;;;;;;6349748;22;19913;-86
2022/05/19 06:29:31;;;;;;;;;;;33.60;99.90;;;;;;6349546;22;19910;-85
2022/05/19 06:31:57;;;;;;;;;;;33.10;99.90;;;;;;6351178;22;19925;-85
2022/05/19 06:34:22;;;;;;;;;;;33.30;99.90;;;;;;6350710;22;19906;-84
2022/05/19 06:36:48;;;;;;;;;;;34.10;99.90;;;;;;6351048;22;19928;-88
2022/05/19 06:39:16;;;;;;;;;;;34.20;99.90;;;;;;6348718;22;19902;-86
2022/05/19 06:44:36;;;;;;;;;;;36.00;99.90;;;;;;6344738;22;19910;-86
2022/05/19 06:47:02;;;;;;;;;;;37.80;99.90;;;;;;6341522;22;19906;-85
2022/05/19 06:49:28;;;;;;;;;;;39.20;99.90;;;;;;6342897;22;19914;-86
2022/05/19 06:51:53;;;;;;;;;;;39.40;99.90;;;;;;6342691;22;19902;-85
2022/05/19 06:54:20;;;;;;;;;;;39.80;99.90;;;;;;6341127;22;20323;-85
2022/05/19 06:56:46;;;;;;;;;;;40.10;99.90;;;;;;6341472;22;20245;-85
2022/05/19 06:59:11;;;;;;;;;;;38.30;99.90;;;;;;6343266;22;19956;-84
2022/05/19 07:01:37;;;;;;;;;;;36.40;99.90;;;;;;6348051;22;19914;-85
2022/05/19 07:04:03;;;;;;;;;;;34.40;99.90;;;;;;6350529;22;19903;-84
2022/05/19 07:06:29;;;;;;;;;;;32.50;99.90;;;;;;6352536;22;19910;-84
2022/05/19 07:08:54;;;;;;;;;;;31.00;99.90;;;;;;6352927;22;19902;-84
2022/05/19 07:11:26;;;;;;;;;;;30.00;99.90;;;;;;6354481;22;19910;-85
2022/05/19 07:13:52;;;;;;;;;;;29.30;99.90;;;;;;6354591;22;19926;-83
2022/05/19 07:16:17;;;;;;;;;;;28.60;99.90;;;;;;6355491;22;19903;-83
2022/05/19 07:18:43;;;;;;;;;;;28.10;99.90;;;;;;6355419;22;19958;-85
2022/05/19 07:21:09;;;;;;;;;;;28.00;99.90;;;;;;6354175;22;19971;-84
2022/05/19 07:23:36;;;;;;;;;;;27.50;99.90;;;;;;6355269;22;19903;-85
2022/05/19 07:26:01;;;;;;;;;;;27.30;99.90;;;;;;6353746;22;19952;-84
2022/05/19 07:28:27;;;;;;;;;;;27.50;99.90;;;;;;6355510;22;19907;-85
2022/05/19 07:30:52;;;;;;;;;;;27.70;99.90;;;;;;6353846;22;19966;-85
2022/05/19 07:33:18;;;;;;;;;;;27.50;99.90;;;;;;6353909;22;19956;-84
2022/05/19 07:35:46;;;;;;;;;;;27.40;99.90;;;;;;6352682;22;19907;-86
2022/05/19 07:38:12;;;;;;;;;;;28.90;99.90;;;;;;6350170;22;19913;-85
2022/05/19 07:40:37;;;;;;;;;;;31.70;99.90;;;;;;6346844;22;19938;-87
2022/05/19 07:45:47;;;;;;;;;;;38.60;99.90;;;;;;6340682;22;19956;-86
2022/05/19 07:48:15;;;;;;;;;;;41.00;99.90;;;;;;6341374;22;19906;-86
2022/05/19 07:50:41;;;;;;;;;;;42.50;99.90;;;;;;6342034;22;19902;-86
2022/05/19 07:53:06;;;;;;;;;;;43.50;99.90;;;;;;6342023;22;20023;-87
2022/05/19 07:55:32;;;;;;;;;;;43.60;99.90;;;;;;6341193;22;19902;-86
2022/05/19 07:57:57;;;;;;;;;;;44.20;99.90;;;;;;6341781;22;20363;-86
2022/05/19 08:00:23;;;;;;;;;;;42.60;99.90;;;;;;6340869;22;19934;-86
2022/05/19 08:02:49;;;;;;;;;;;43.20;99.90;;;;;;6346282;22;19914;-88
2022/05/19 08:05:15;;;;;;;;;;;43.10;99.90;;;;;;6344255;22;19907;-86
2022/05/19 08:07:40;;;;;;;;;;;42.80;99.90;;;;;;6341195;22;20435;-86
2022/05/19 08:10:23;;;;;;;;;;;43.10;99.90;;;;;;6342064;22;19906;-86
2022/05/19 08:15:37;;;;;;;;;;;44.70;99.90;;;;;;6340996;22;20291;-87
2022/05/19 08:18:05;;;;;;;;;;;44.00;99.90;;;;;;6341659;22;19914;-85
2022/05/19 08:20:31;;;;;;;;;;;43.90;99.90;;;;;;6338400;22;20224;-85
2022/05/19 08:22:56;;;;;;;;;;;43.70;99.90;;;;;;6342058;22;19906;-87
2022/05/19 08:25:26;;;;;;;;;;;44.50;99.90;;;;;;6342446;22;19925;-86
2022/05/19 08:27:52;;;;;;;;;;;44.20;99.90;;;;;;6339386;22;19973;-85
2022/05/19 08:30:18;;;;;;;;;;;43.80;99.90;;;;;;6338044;22;19911;-87
2022/05/19 08:32:43;;;;;;;;;;;44.30;99.90;;;;;;6339789;22;19909;-87
2022/05/19 08:35:09;;;;;;;;;;;44.60;99.90;;;;;;6341336;22;19989;-85
2022/05/19 08:37:34;;;;;;;;;;;45.60;99.90;;;;;;6343266;22;19903;-85
2022/05/19 08:40:00;;;;;;;;;;;46.60;99.90;;;;;;6347837;22;19952;-84
2022/05/19 08:42:27;;;;;;;;;;;45.80;99.90;;;;;;6339343;22;20320;-87
2022/05/19 08:44:55;;;;;;;;;;;44.90;99.90;;;;;;6343457;22;19936;-86
2022/05/19 08:47:24;;;;;;;;;;;43.70;99.90;;;;;;6341011;22;19929;-85
2022/05/19 08:49:57;;;;;;;;;;;43.10;99.90;;;;;;6341572;22;20225;-86
2022/05/19 08:52:25;;;;;;;;;;;41.20;99.90;;;;;;6343159;22;20345;-85
2022/05/19 08:54:52;;;;;;;;;;;41.80;99.90;;;;;;6341297;22;20328;-87
2022/05/19 08:57:23;;;;;;;;;;;41.80;99.90;;;;;;6342671;22;20337;-85
2022/05/19 09:00:00;;;;;;;;;;;42.30;99.90;;;;;;6344071;22;19907;-86
2022/05/19 09:02:46;;;;;;;;;;;42.70;99.90;;;;;;6342190;22;19907;-85
2022/05/19 09:05:23;;;;;;;;;;;43.40;99.90;;;;;;6321959;22;19989;-85
2022/05/19 09:07:57;;;;;;;;;;;44.30;99.90;;;;;;6343511;22;20253;-85
2022/05/19 09:10:29;;;;;;;;;;;45.20;99.90;;;;;;6338858;22;19902;-82
2022/05/19 09:13:16;;;;;;;;;;;43.60;99.90;;;;;;6341906;22;20374;-82
2022/05/19 09:15:47;;;;;;;;;;;42.60;99.90;;;;;;6342318;22;19952;-85
2022/05/19 09:18:14;;;;;;;;;;;42.50;99.90;;;;;;6341631;22;19906;-84
2022/05/19 09:20:48;;;;;;;;;;;41.70;99.90;;;;;;6341967;22;19922;-86
2022/05/19 09:23:13;;;;;;;;;;;42.20;99.90;;;;;;6342246;22;19906;-85
2022/05/19 09:25:44;;;;;;;;;;;43.00;99.90;;;;;;6342207;22;19902;-86
2022/05/19 09:28:12;;;;;;;;;;;42.70;99.90;;;;;;6341620;22;19953;-86
2022/05/19 09:30:40;;;;;;;;;;;43.10;99.90;;;;;;6342436;22;19903;-86
2022/05/19 09:33:07;;;;;;;;;;;42.80;99.90;;;;;;6343245;22;19899;-86
2022/05/19 09:35:38;;;;;;;;;;;42.50;99.90;;;;;;6341625;22;19909;-87
2022/05/19 09:38:17;;;;;;;;;;;42.50;99.90;;;;;;6341294;22;19899;-86
2022/05/19 09:40:46;;;;;;;;;;;42.30;99.90;;;;;;6341772;22;19905;-85
2022/05/19 09:43:20;;;;;;;;;;;42.60;99.90;;;;;;6347430;22;19915;-85
2022/05/19 09:45:46;;;;;;;;;;;42.70;99.90;;;;;;6340475;22;19907;-86
2022/05/19 09:48:12;;;;;;;;;;;41.70;99.90;;;;;;6340627;22;19902;-86
2022/05/19 09:50:48;;;;;;;;;;;41.70;99.90;;;;;;6338168;22;20386;-89
2022/05/19 09:53:21;;;;;;;;;;;42.60;99.90;;;;;;6337864;22;19924;-90
2022/05/19 09:55:54;;;;;;;;;;;43.90;99.90;;;;;;6341047;22;19905;-86
2022/05/19 09:58:19;;;;;;;;;;;44.50;99.90;;;;;;6341463;22;19898;-86
2022/05/19 10:00:53;;;;;;;;;;;44.50;99.90;;;;;;6341374;22;19903;-87
2022/05/19 10:03:22;;;;;;;;;;;44.10;99.90;;;;;;6340599;22;19899;-87
2022/05/19 10:05:49;;;;;;;;;;;43.80;99.90;;;;;;6340417;22;19991;-86
2022/05/19 10:08:20;;;;;;;;;;;44.60;99.90;;;;;;6340944;22;19905;-86
2022/05/19 10:10:48;;;;;;;;;;;44.10;99.90;;;;;;6340356;22;19902;-90
2022/05/19 10:13:33;;;;;;;;;;;43.50;99.90;;;;;;6361981;22;19921;-81
2022/05/19 10:19:23;;;;;;;;;;;;;;;;;;;;;
2022/05/19 10:21:47;;;;;;;;;;;39.70;99.90;;;;;;6366540;22;19910;-85
2022/05/19 10:24:35;;;;;;;;;;;;;;;;;;;;;
2022/05/19 10:33:06;;;;;;;;;;;38.90;99.90;;;;;;6375460;22;20278;-84
2022/05/19 10:35:31;;;;;;;;;;;37.40;99.90;;;;;;6349110;22;19914;-85
2022/05/19 10:38:16;;;;;;;;;;;38.40;99.90;;;;;;6350236;22;19982;-83
2022/05/19 10:40:53;;;;;;;;;;;39.20;99.90;;;;;;6350026;22;19913;-83
2022/05/19 10:43:34;;;;;;;;;;;40.20;99.90;;;;;;6378194;22;20236;-81
2022/05/19 10:46:01;;;;;;;;;;;39.80;99.90;;;;;;6350249;22;19906;-82
2022/05/19 10:48:40;;;;;;;;;;;39.40;99.90;;;;;;6347420;22;19902;-82
2022/05/19 10:51:39;;;;;;;;;;;38.80;99.90;;;;;;6348436;22;19933;-82
2022/05/19 10:54:17;;;;;;;;;;;38.40;99.90;;;;;;6264053;22;19982;-81
2022/05/19 10:57:12;;;;;;;;;;;38.00;99.90;;;;;;6375525;22;19913;-81
2022/05/19 10:59:56;;;;;;;;;;;39.50;99.90;;;;;;6342769;22;19907;-81
2022/05/19 11:02:25;;;;;;;;;;;39.20;99.90;;;;;;6376576;22;19930;-83
2022/05/19 11:04:53;;;;;;;;;;;40.30;99.90;;;;;;6376676;22;19950;-82
2022/05/19 11:07:22;;;;;;;;;;;40.70;99.90;;;;;;6348579;22;20225;-81
2022/05/19 11:09:59;;;;;;;;;;;42.00;99.90;;;;;;6376625;22;19998;-82
2022/05/19 11:12:43;;;;;;;;;;;42.10;99.90;;;;;;6348976;22;19985;-81
2022/05/19 11:15:09;;;;;;;;;;;42.30;99.90;;;;;;6348943;22;19909;-81
2022/05/19 11:17:41;;;;;;;;;;;42.30;99.90;;;;;;6347790;22;19906;-82
2022/05/19 11:20:18;;;;;;;;;;;40.70;99.90;;;;;;6377265;22;19913;-82
2022/05/19 11:22:46;;;;;;;;;;;39.30;99.90;;;;;;6347428;22;20328;-81
2022/05/19 11:27:58;;;;;;;;;;;38.70;99.90;;;;;;6375222;22;20290;-81
2022/05/19 11:30:45;;;;;;;;;;;38.30;99.90;;;;;;6349984;22;19902;-81
2022/05/19 11:33:18;;;;;;;;;;;37.30;99.90;;;;;;6376647;22;19909;-80
2022/05/19 11:35:46;;;;;;;;;;;36.90;99.90;;;;;;6376945;22;19914;-82
2022/05/19 11:38:21;;;;;;;;;;;36.30;99.90;;;;;;6347476;22;19926;-82
2022/05/19 11:40:53;;;;;;;;;;;36.20;99.90;;;;;;6375588;22;19909;-81
2022/05/19 11:43:24;;;;;;;;;;;36.10;99.90;;;;;;6376738;22;20487;-82
2022/05/19 11:45:56;;;;;;;;;;;36.50;99.90;;;;;;6375002;22;19902;-81
2022/05/19 11:57:29;;;;;;;;;;;39.00;99.90;;;;;;6374952;22;19965;-82
2022/05/19 11:59:56;;;;;;;;;;;38.20;99.90;;;;;;6348706;22;19909;-80
2022/05/19 12:02:26;;;;;;;;;;;37.30;99.90;;;;;;6348646;22;19934;-82
2022/05/19 12:04:58;;;;;;;;;;;37.10;99.90;;;;;;6377775;22;19902;-80
2022/05/19 12:07:36;;;;;;;;;;;37.40;99.90;;;;;;6376237;22;19927;-81
2022/05/19 12:10:01;;;;;;;;;;;38.00;99.90;;;;;;6376841;22;20286;-81
2022/05/19 12:12:30;;;;;;;;;;;38.40;99.90;;;;;;6375442;22;19910;-81
2022/05/19 12:15:17;;;;;;;;;;;38.20;99.90;;;;;;6347729;22;19902;-82
2022/05/19 12:17:45;;;;;;;;;;;38.40;99.90;;;;;;6346614;22;19906;-81
2022/05/19 12:20:29;;;;;;;;;;;37.60;99.90;;;;;;6375880;22;19914;-82
2022/05/19 12:23:13;;;;;;;;;;;36.30;99.90;;;;;;6375492;22;19906;-81
2022/05/19 12:25:42;;;;;;;;;;;35.10;99.90;;;;;;6347472;22;20285;-80
2022/05/19 12:28:13;;;;;;;;;;;34.30;99.90;;;;;;6376203;22;19937;-81
2022/05/19 12:33:36;;;;;;;;;;;33.40;99.90;;;;;;6376350;22;19912;-81
2022/05/19 12:36:16;;;;;;;;;;;32.80;99.90;;;;;;6375536;22;19906;-79
2022/05/19 12:38:43;;;;;;;;;;;32.40;99.90;;;;;;6375883;22;19909;-80
2022/05/19 12:41:31;;;;;;;;;;;32.20;99.90;;;;;;6375325;22;19909;-80
2022/05/19 12:43:58;;;;;;;;;;;31.80;99.90;;;;;;6323137;22;19925;-81
2022/05/19 12:46:33;;;;;;;;;;;31.50;99.90;;;;;;6349115;22;19941;-82
2022/05/19 12:49:13;;;;;;;;;;;30.30;99.90;;;;;;6348623;22;19910;-80
2022/05/19 12:51:47;;;;;;;;;;;28.70;99.90;;;;;;6348687;22;19909;-81
2022/05/19 12:54:13;;;;;;;;;;;27.30;99.90;;;;;;6349313;22;19902;-83
2022/05/19 12:56:38;;;;;;;;;;;26.30;99.90;;;;;;6348369;22;19906;-82
2022/05/19 12:59:05;;;;;;;;;;;25.60;99.90;;;;;;6346959;22;19925;-83
2022/05/19 13:01:36;;;;;;;;;;;24.90;99.90;;;;;;6379251;22;20331;-82
2022/05/19 13:04:10;;;;;;;;;;;24.10;99.90;;;;;;6347522;22;19902;-82
2022/05/19 13:06:42;;;;;;;;;;;23.30;1.00;;;;;;6375184;22;19961;-83
2022/05/19 13:09:08;;;;;;;;;;;22.70;1.00;;;;;;6376118;22;19906;-83
2022/05/19 13:11:36;;;;;;;;;;;22.50;99.90;;;;;;6377016;22;19954;-82
2022/05/19 13:14:05;;;;;;;;;;;22.20;55.90;;;;;;6349330;22;19906;-82
2022/05/19 13:16:33;;;;;;;;;;;22.10;2.70;;;;;;6348100;22;19956;-81
2022/05/19 13:18:58;;;;;;;;;;;22.10;1.00;;;;;;6375495;22;19902;-81
2022/05/19 13:21:49;;;;;;;;;;;22.20;1.00;;;;;;6376471;22;19907;-81
2022/05/19 13:24:17;;;;;;;;;;;21.90;1.00;;;;;;6328819;22;19902;-82
2022/05/19 13:26:45;;;;;;;;;;;21.60;1.00;;;;;;6374306;22;19913;-82
2022/05/19 13:32:03;;;;;;;;;;;21.60;1.00;;;;;;6375157;22;19912;-82
2022/05/19 13:34:30;;;;;;;;;;;21.40;99.90;;;;;;6375895;22;19902;-81
2022/05/19 13:37:02;;;;;;;;;;;21.20;99.90;;;;;;6374302;22;19938;-81
2022/05/19 13:39:27;;;;;;;;;;;21.10;1.00;;;;;;6376431;22;19926;-82
2022/05/19 13:41:56;;;;;;;;;;;21.00;99.90;;;;;;6375411;22;20240;-81
2022/05/19 13:44:25;;;;;;;;;;;21.20;99.90;;;;;;6375669;22;19906;-82
2022/05/19 13:46:50;;;;;;;;;;;21.30;99.90;;;;;;6346787;22;19936;-82
2022/05/19 13:49:19;;;;;;;;;;;21.50;1.00;;;;;;6374548;22;19902;-82
2022/05/19 13:51:45;;;;;;;;;;;21.70;1.00;;;;;;6347215;22;19906;-81
2022/05/19 13:54:12;;;;;;;;;;;21.90;1.00;;;;;;6373915;22;19910;-81
2022/05/19 13:56:40;;;;;;;;;;;22.10;99.90;;;;;;6345669;22;19902;-80
2022/05/19 13:59:07;;;;;;;;;;;22.30;17.50;;;;;;6373208;22;19906;-81
2022/05/19 14:01:33;;;;;;;;;;;22.40;1.00;;;;;;6374360;22;20320;-81
2022/05/19 14:04:00;;;;;;;;;;;22.60;1.00;;;;;;6374161;22;20277;-81
2022/05/19 14:06:28;;;;;;;;;;;22.60;1.00;;;;;;6372143;22;19927;-81
2022/05/19 14:08:54;;;;;;;;;;;22.50;1.00;;;;;;6346814;22;20330;-81
2022/05/19 14:11:19;;;;;;;;;;;22.30;1.00;;;;;;6344296;22;19903;-83
2022/05/19 14:13:45;;;;;;;;;;;22.10;1.00;;;;;;6374594;22;20329;-81
2022/05/19 14:16:12;;;;;;;;;;;22.00;99.90;;;;;;6345683;22;19906;-81
2022/05/19 14:18:39;;;;;;;;;;;22.00;99.90;;;;;;6374248;22;20458;-80
2022/05/19 14:21:07;;;;;;;;;;;22.10;99.90;;;;;;6346117;22;19983;-84
2022/05/19 14:23:39;;;;;;;;;;;22.10;63.60;;;;;;6373671;22;19956;-81
2022/05/19 14:26:07;;;;;;;;;;;22.10;1.00;;;;;;6346709;22;19911;-81
2022/05/19 14:28:43;;;;;;;;;;;21.80;1.00;;;;;;6349514;22;19909;-82
2022/05/19 14:31:35;;;;;;;;;;;21.60;99.90;;;;;;6347708;22;20044;-81
2022/05/19 14:34:03;;;;;;;;;;;21.30;1.00;;;;;;6315197;22;19906;-81
2022/05/19 14:36:41;;;;;;;;;;;21.20;99.90;;;;;;6374022;22;19913;-80
2022/05/19 14:39:19;;;;;;;;;;;21.20;1.00;;;;;;6347345;22;20351;-81
2022/05/19 14:44:32;;;;;;;;;;;21.10;1.00;;;;;;6375037;22;19913;-80
2022/05/19 14:47:00;;;;;;;;;;;21.10;1.60;;;;;;6374992;22;19959;-81
2022/05/19 14:49:30;;;;;;;;;;;21.00;83.20;;;;;;6374288;22;19958;-82
2022/05/19 14:51:56;;;;;;;;;;;21.00;1.00;;;;;;6374511;22;19909;-81
2022/05/19 14:54:22;;;;;;;;;;;21.20;1.00;;;;;;6373337;22;19902;-82
2022/05/19 14:57:04;;;;;;;;;;;21.30;1.00;;;;;;6346057;22;19914;-81
2022/05/19 14:59:41;;;;;;;;;;;21.40;1.00;;;;;;6373731;22;19957;-82
2022/05/19 15:02:07;;;;;;;;;;;21.40;1.00;;;;;;6347049;22;19909;-82
2022/05/19 15:04:32;;;;;;;;;;;21.60;99.90;;;;;;6375011;22;19902;-81
2022/05/19 15:06:58;;;;;;;;;;;21.90;1.00;;;;;;6374893;22;20240;-81
2022/05/19 15:09:24;;;;;;;;;;;22.10;99.90;;;;;;6372708;22;20454;-81